createdAt,value
2018-12-18T00:01:46.897Z,50.80
2018-12-18T00:04:18.263Z,50.63
2018-12-18T00:06:49.568Z,48.67
2018-12-18T00:09:19.003Z,51.43
2018-12-18T00:11:48.321Z,50.67
2018-12-18T00:14:17.703Z,50.53
2018-12-18T00:16:46.990Z,50.30
2018-12-18T00:19:16.226Z,50.87
2018-12-18T00:21:45.509Z,50.93
2018-12-18T00:24:14.874Z,50.10
2018-12-18T00:26:44.203Z,49.63
2018-12-18T00:29:13.556Z,49.90
2018-12-18T00:31:42.879Z,49.27
2018-12-18T00:34:12.232Z,48.30
2018-12-18T00:36:41.556Z,49.77
2018-12-18T00:39:14.687Z,51.10
2018-12-18T00:41:44.103Z,49.63
2018-12-18T00:44:13.392Z,48.07
2018-12-18T00:46:42.766Z,48.80
2018-12-18T00:49:12.198Z,50.07
2018-12-18T00:51:41.640Z,48.17
2018-12-18T00:54:10.984Z,50.27
2018-12-18T00:56:40.412Z,49.23
2018-12-18T00:59:09.704Z,49.03
2018-12-18T01:01:39.055Z,49.53
2018-12-18T01:04:08.370Z,47.87
2018-12-18T01:06:38.225Z,49.07
2018-12-18T01:09:07.607Z,48.33
2018-12-18T01:11:38.266Z,48.67
2018-12-18T01:14:07.625Z,47.57
2018-12-18T01:16:36.895Z,48.93
2018-12-18T01:19:06.250Z,47.57
2018-12-18T01:21:35.601Z,47.77
2018-12-18T01:24:05.010Z,47.87
2018-12-18T01:26:34.308Z,47.27
2018-12-18T01:29:03.779Z,50.13
2018-12-18T01:31:33.084Z,48.33
2018-12-18T01:34:02.460Z,48.07
2018-12-18T01:36:32.862Z,47.33
2018-12-18T01:39:02.368Z,47.10
2018-12-18T01:41:33.750Z,48.23
2018-12-18T01:44:03.136Z,48.90
2018-12-18T01:46:32.647Z,46.90
2018-12-18T01:49:01.933Z,47.00
2018-12-18T01:51:31.360Z,48.07
2018-12-18T01:54:00.687Z,48.50
2018-12-18T01:56:29.952Z,47.20
2018-12-18T01:58:59.205Z,48.37
2018-12-18T02:01:28.622Z,47.30
2018-12-18T02:03:57.898Z,48.23
2018-12-18T02:06:27.166Z,46.37
2018-12-18T02:08:56.587Z,47.63
2018-12-18T02:11:25.948Z,47.03
2018-12-18T02:13:55.221Z,45.20
2018-12-18T02:16:24.489Z,46.77
2018-12-18T02:18:53.752Z,47.20
2018-12-18T02:21:23.090Z,49.10
2018-12-18T02:23:52.319Z,48.30
2018-12-18T02:26:21.691Z,47.15
2018-12-18T02:28:50.990Z,47.33
2018-12-18T02:31:20.422Z,48.10
2018-12-18T02:33:49.751Z,48.03
2018-12-18T02:36:19.074Z,46.73
2018-12-18T02:38:48.437Z,48.30
2018-12-18T02:41:17.701Z,47.23
2018-12-18T02:43:47.015Z,47.27
2018-12-18T02:46:16.383Z,47.87
2018-12-18T02:48:45.706Z,44.60
2018-12-18T02:51:15.216Z,48.10
2018-12-18T02:53:44.528Z,46.57
2018-12-18T02:56:13.848Z,45.57
2018-12-18T02:58:43.183Z,45.60
2018-12-18T03:01:12.450Z,46.03
2018-12-18T03:03:41.768Z,45.30
2018-12-18T03:06:11.070Z,44.20
2018-12-18T03:08:40.383Z,45.07
2018-12-18T03:11:11.808Z,46.13
2018-12-18T03:13:41.254Z,45.27
2018-12-18T03:16:10.580Z,46.37
2018-12-18T03:18:39.990Z,44.77
2018-12-18T03:21:09.336Z,45.33
2018-12-18T03:23:38.786Z,45.30
2018-12-18T03:26:08.239Z,46.00
2018-12-18T03:28:37.611Z,46.97
2018-12-18T03:31:06.952Z,44.73
2018-12-18T03:33:36.267Z,45.87
2018-12-18T03:36:05.808Z,44.90
2018-12-18T03:38:35.358Z,45.37
2018-12-18T03:41:04.716Z,44.87
2018-12-18T03:43:34.076Z,47.03
2018-12-18T03:46:03.365Z,44.40
2018-12-18T03:48:32.735Z,46.93
2018-12-18T03:51:02.146Z,47.37
2018-12-18T03:53:31.417Z,44.17
2018-12-18T03:56:00.772Z,45.33
2018-12-18T03:58:30.240Z,43.47
2018-12-18T04:00:59.554Z,45.87
2018-12-18T04:03:30.975Z,44.93
2018-12-18T04:06:00.397Z,45.37
2018-12-18T04:08:29.888Z,45.33
2018-12-18T04:10:59.184Z,43.30
2018-12-18T04:13:28.612Z,44.77
2018-12-18T04:15:57.913Z,44.40
2018-12-18T04:18:27.271Z,42.80
2018-12-18T04:20:56.595Z,44.27
2018-12-18T04:23:26.673Z,45.43
2018-12-18T04:25:56.382Z,43.80
2018-12-18T04:28:25.653Z,45.87
2018-12-18T04:30:55.060Z,44.53
2018-12-18T04:33:24.505Z,45.70
2018-12-18T04:35:56.556Z,45.60
2018-12-18T04:38:26.318Z,45.27
2018-12-18T04:40:55.609Z,45.30
2018-12-18T04:43:25.282Z,44.87
2018-12-18T04:45:54.696Z,44.00
2018-12-18T04:48:24.052Z,45.57
2018-12-18T04:50:53.349Z,45.17
2018-12-18T04:53:22.730Z,44.60
2018-12-18T04:55:52.049Z,44.23
2018-12-18T04:58:21.375Z,44.43
2018-12-18T05:00:50.654Z,44.47
2018-12-18T05:03:19.979Z,44.37
2018-12-18T05:05:49.945Z,46.03
2018-12-18T05:08:19.317Z,43.33
2018-12-18T05:10:55.303Z,45.13
2018-12-18T05:13:24.612Z,45.07
2018-12-18T05:15:53.823Z,44.80
2018-12-18T05:18:23.077Z,44.80
2018-12-18T05:20:52.453Z,43.70
2018-12-18T05:23:21.735Z,44.70
2018-12-18T05:25:51.026Z,45.27
2018-12-18T05:28:20.395Z,45.12
2018-12-18T05:30:49.795Z,46.57
2018-12-18T05:33:19.143Z,45.70
2018-12-18T05:35:48.479Z,46.93
2018-12-18T05:38:17.890Z,44.03
2018-12-18T05:40:47.252Z,45.90
2018-12-18T05:43:16.579Z,44.90
2018-12-18T05:45:45.932Z,45.20
2018-12-18T05:48:15.256Z,46.03
2018-12-18T05:50:44.616Z,46.07
2018-12-18T05:53:13.919Z,44.83
2018-12-18T05:55:43.249Z,45.73
2018-12-18T05:58:12.461Z,44.60
2018-12-18T06:00:41.908Z,46.60
2018-12-18T06:03:11.185Z,46.27
2018-12-18T06:05:40.487Z,44.40
2018-12-18T06:08:09.812Z,45.37
2018-12-18T06:10:39.164Z,45.50
2018-12-18T06:13:08.648Z,46.20
2018-12-18T06:15:38.892Z,46.30
2018-12-18T06:18:08.271Z,46.03
2018-12-18T06:20:37.708Z,44.90
2018-12-18T06:23:07.064Z,47.03
2018-12-18T06:25:36.355Z,46.87
2018-12-18T06:28:06.202Z,47.40
2018-12-18T06:30:43.381Z,46.17
2018-12-18T06:33:16.223Z,48.40
2018-12-18T06:35:45.519Z,45.97
2018-12-18T06:40:55.949Z,43.23
2018-12-18T06:43:25.246Z,45.67
2018-12-18T06:45:54.588Z,44.13
2018-12-18T06:48:23.865Z,43.17
2018-12-18T06:50:53.395Z,44.93
2018-12-18T06:53:22.653Z,45.03
2018-12-18T06:55:51.981Z,44.37
2018-12-18T06:58:21.735Z,45.60
2018-12-18T07:00:51.104Z,44.10
2018-12-18T07:03:22.247Z,42.97
2018-12-18T07:05:52.247Z,42.00
2018-12-18T07:08:27.014Z,44.67
2018-12-18T07:10:56.508Z,43.93
2018-12-18T07:13:27.119Z,43.67
2018-12-18T07:15:58.186Z,45.30
2018-12-18T07:18:30.656Z,42.83
2018-12-18T07:21:01.385Z,43.07
2018-12-18T07:23:39.612Z,42.73
2018-12-18T07:26:14.532Z,44.83
2018-12-18T07:29:05.923Z,42.45
2018-12-18T07:32:13.611Z,42.40
2018-12-18T07:34:44.289Z,41.50
2018-12-18T07:37:15.016Z,40.87
2018-12-18T07:39:45.238Z,41.17
2018-12-18T07:45:00.597Z,43.70
2018-12-18T07:47:30.110Z,42.07
2018-12-18T07:49:59.814Z,40.67
2018-12-18T07:52:40.826Z,42.27
2018-12-18T07:55:23.132Z,42.90
2018-12-18T08:03:56.392Z,42.30
2018-12-18T08:07:02.999Z,42.20
2018-12-18T08:12:30.942Z,41.58
2018-12-18T08:17:59.354Z,39.37
2018-12-18T08:20:28.634Z,38.23
2018-12-18T08:22:57.928Z,39.43
2018-12-18T08:25:27.508Z,40.93
2018-12-18T08:27:56.941Z,38.13
2018-12-18T08:30:26.758Z,38.37
2018-12-18T08:32:56.324Z,38.83
2018-12-18T08:35:28.165Z,38.40
2018-12-18T08:37:57.533Z,37.03
2018-12-18T08:40:27.283Z,37.53
2018-12-18T08:42:56.979Z,39.40
2018-12-18T08:45:26.540Z,36.93
2018-12-18T08:47:57.624Z,37.28
2018-12-18T08:50:36.245Z,36.35
2018-12-18T08:53:07.232Z,37.80
2018-12-18T08:55:39.026Z,37.80
2018-12-18T08:58:09.816Z,35.50
2018-12-18T09:00:46.914Z,36.65
2018-12-18T09:05:59.706Z,35.98
2018-12-18T09:08:32.853Z,34.50
2018-12-18T09:11:06.014Z,36.00
2018-12-18T09:13:35.741Z,49.00
2018-12-18T09:18:49.374Z,43.57
2018-12-18T09:21:20.733Z,44.67
2018-12-18T09:23:52.451Z,42.10
2018-12-18T09:26:22.029Z,40.90
2018-12-18T09:28:51.504Z,42.08
2018-12-18T09:31:21.588Z,40.83
2018-12-18T09:33:51.186Z,40.07
2018-12-18T09:36:20.487Z,40.03
2018-12-18T09:38:55.205Z,39.10
2018-12-18T09:44:11.139Z,38.45
2018-12-18T09:46:40.566Z,39.73
2018-12-18T09:49:17.592Z,39.05
2018-12-18T09:51:47.219Z,39.60
2018-12-18T09:54:17.027Z,38.48
2018-12-18T09:56:52.050Z,37.55
2018-12-18T09:59:25.414Z,37.63
2018-12-18T10:01:55.321Z,36.43
2018-12-18T10:04:26.595Z,38.95
2018-12-18T10:07:08.418Z,37.28
2018-12-18T10:15:52.349Z,43.30
2018-12-18T10:18:25.848Z,42.95
2018-12-18T10:20:57.091Z,44.58
2018-12-18T10:23:27.528Z,42.43
2018-12-18T10:25:56.900Z,42.62
2018-12-18T10:28:27.828Z,40.20
2018-12-18T10:30:57.412Z,40.63
2018-12-18T10:39:42.959Z,37.23
2018-12-18T10:42:12.723Z,37.65
2018-12-18T10:44:42.887Z,38.42
2018-12-18T10:47:12.958Z,37.25
2018-12-18T10:49:42.800Z,36.90
2018-12-18T10:52:12.456Z,38.83
2018-12-18T10:54:42.714Z,37.73
2018-12-18T10:57:13.369Z,37.10
2018-12-18T10:59:43.601Z,38.35
2018-12-18T11:02:14.274Z,40.95
2018-12-18T11:04:44.346Z,45.95
2018-12-18T11:07:15.590Z,46.85
2018-12-18T11:09:45.778Z,48.85
2018-12-18T11:12:20.506Z,49.67
2018-12-18T11:14:51.072Z,52.27
2018-12-18T11:17:20.625Z,49.27
2018-12-18T11:19:51.577Z,51.43
2018-12-18T11:22:21.449Z,45.40
2018-12-18T11:24:53.211Z,49.27
2018-12-18T11:27:23.484Z,48.20
2018-12-18T11:29:53.867Z,46.47
2018-12-18T11:32:23.941Z,47.20
2018-12-18T11:34:53.563Z,48.67
2018-12-18T11:37:24.963Z,46.23
2018-12-18T11:39:54.929Z,44.43
2018-12-18T11:42:25.564Z,48.13
2018-12-18T11:44:56.232Z,49.03
2018-12-18T11:47:27.719Z,47.00
2018-12-18T11:49:57.764Z,47.80
2018-12-18T11:52:28.349Z,44.40
2018-12-18T11:54:57.968Z,47.30
2018-12-18T11:57:27.611Z,44.53
2018-12-18T11:59:57.399Z,43.57
2018-12-18T12:02:27.986Z,44.30
2018-12-18T12:05:00.745Z,44.90
2018-12-18T12:07:30.716Z,45.97
2018-12-18T12:10:01.252Z,46.37
2018-12-18T12:12:31.242Z,52.38
2018-12-18T12:15:01.323Z,47.40
2018-12-18T12:17:31.867Z,48.73
2018-12-18T12:20:01.627Z,50.70
2018-12-18T12:22:35.276Z,46.67
2018-12-18T12:25:07.766Z,46.60
2018-12-18T12:27:43.598Z,44.87
2018-12-18T12:30:13.819Z,43.77
2018-12-18T12:32:43.820Z,44.33
2018-12-18T12:35:15.251Z,42.33
2018-12-18T12:37:45.518Z,43.20
2018-12-18T12:40:21.416Z,43.53
2018-12-18T12:42:53.184Z,45.40
2018-12-18T12:45:23.144Z,40.60
2018-12-18T12:47:56.745Z,40.93
2018-12-18T12:50:26.640Z,39.47
2018-12-18T12:53:01.132Z,36.63
2018-12-18T12:55:31.623Z,36.57
2018-12-18T12:58:01.237Z,35.63
2018-12-18T13:00:32.224Z,35.47
2018-12-18T13:03:05.762Z,36.60
2018-12-18T13:05:37.865Z,35.03
2018-12-18T13:08:08.529Z,36.03
2018-12-18T13:10:38.626Z,34.57
2018-12-18T13:13:08.624Z,36.57
2018-12-18T13:18:28.890Z,34.80
2018-12-18T13:20:58.592Z,33.60
2018-12-18T13:23:28.010Z,33.83
2018-12-18T13:25:57.575Z,35.35
2018-12-18T13:28:27.805Z,36.83
2018-12-18T13:30:58.250Z,34.63
2018-12-18T13:33:31.347Z,33.95
2018-12-18T13:42:36.842Z,37.53
2018-12-18T13:45:31.604Z,36.13
2018-12-18T13:50:52.678Z,35.67
2018-12-18T13:53:27.207Z,37.20
2018-12-18T13:55:56.918Z,38.10
2018-12-18T13:58:27.471Z,35.40
2018-12-18T14:01:05.716Z,37.63
2018-12-18T14:03:42.838Z,37.57
2018-12-18T14:06:23.472Z,36.73
2018-12-18T14:08:54.189Z,37.55
2018-12-18T14:11:26.485Z,37.53
2018-12-18T14:14:01.307Z,39.93
2018-12-18T14:16:31.075Z,39.63
2018-12-18T14:19:01.166Z,37.55
2018-12-18T14:21:33.642Z,37.10
2018-12-18T14:24:03.980Z,38.50
2018-12-18T14:29:14.966Z,37.40
2018-12-18T14:31:44.467Z,36.00
2018-12-18T14:34:14.182Z,37.70
2018-12-18T14:37:06.667Z,36.90
2018-12-18T14:39:35.995Z,35.30
2018-12-18T14:42:05.344Z,37.10
2018-12-18T14:44:34.833Z,36.42
2018-12-18T14:47:04.448Z,36.23
2018-12-18T14:49:34.652Z,36.48
2018-12-18T14:52:04.034Z,35.08
2018-12-18T14:54:33.595Z,33.35
2018-12-18T14:57:03.192Z,33.60
2018-12-18T14:59:32.521Z,33.23
2018-12-18T15:02:01.958Z,34.65
2018-12-18T15:04:33.740Z,34.43
2018-12-18T15:07:03.342Z,36.95
2018-12-18T15:09:33.076Z,35.33
2018-12-18T15:12:02.921Z,35.23
2018-12-18T15:14:32.452Z,37.17
2018-12-18T15:17:02.755Z,37.03
2018-12-18T15:19:32.125Z,36.00
2018-12-18T15:22:02.231Z,37.08
2018-12-18T15:24:33.031Z,34.20
2018-12-18T15:27:03.571Z,36.63
2018-12-18T15:29:35.917Z,36.65
2018-12-18T15:32:05.317Z,37.45
2018-12-18T15:34:34.637Z,36.20
2018-12-18T15:37:09.559Z,35.75
2018-12-18T15:39:35.653Z,35.55
2018-12-18T15:42:05.228Z,37.93
2018-12-18T15:44:34.615Z,37.13
2018-12-18T15:47:03.976Z,36.50
2018-12-18T15:49:33.472Z,35.95
2018-12-18T15:52:02.834Z,38.73
2018-12-18T15:54:32.162Z,39.35
2018-12-18T15:57:01.520Z,39.43
2018-12-18T15:59:31.103Z,41.58
2018-12-18T16:02:00.733Z,41.63
2018-12-18T16:04:30.015Z,43.85
2018-12-18T16:06:59.437Z,40.63
2018-12-18T16:09:28.736Z,41.45
2018-12-18T16:11:58.120Z,43.33
2018-12-18T16:14:27.599Z,44.98
2018-12-18T16:16:56.900Z,45.20
2018-12-18T16:19:26.407Z,46.37
2018-12-18T16:21:56.159Z,48.90
2018-12-18T16:24:25.597Z,46.87
2018-12-18T16:26:55.123Z,48.90
2018-12-18T16:29:24.571Z,49.38
2018-12-18T16:31:55.208Z,50.80
2018-12-18T16:34:24.410Z,50.03
2018-12-18T16:36:53.709Z,53.45
2018-12-18T16:39:23.073Z,53.38
2018-12-18T16:41:52.428Z,51.53
2018-12-18T16:44:21.735Z,54.00
2018-12-18T16:46:51.297Z,53.30
2018-12-18T16:49:20.632Z,52.70
2018-12-18T16:51:50.057Z,54.83
2018-12-18T16:54:19.437Z,54.70
2018-12-18T16:56:48.966Z,55.92
2018-12-18T16:59:18.320Z,55.20
2018-12-18T17:01:48.761Z,54.33
2018-12-18T17:04:18.150Z,58.52
2018-12-18T17:06:47.569Z,56.27
2018-12-18T17:09:16.866Z,57.00
2018-12-18T17:11:46.199Z,56.77
2018-12-18T17:14:16.599Z,56.97
2018-12-18T17:16:45.871Z,57.83
2018-12-18T17:19:15.097Z,57.85
2018-12-18T17:21:44.440Z,59.40
2018-12-18T17:24:13.705Z,58.68
2018-12-18T17:26:43.026Z,60.47
2018-12-18T17:29:12.915Z,60.98
2018-12-18T17:31:42.282Z,60.00
2018-12-18T17:34:11.786Z,62.33
2018-12-18T17:36:41.178Z,60.67
2018-12-18T17:39:10.531Z,60.57
2018-12-18T17:41:39.830Z,60.55
2018-12-18T17:44:09.167Z,60.60
2018-12-18T17:46:38.642Z,61.30
2018-12-18T17:49:07.960Z,60.38
2018-12-18T17:51:37.316Z,61.70
2018-12-18T17:54:07.672Z,61.70
2018-12-18T17:56:37.007Z,59.05
2018-12-18T17:59:06.479Z,59.60
2018-12-18T18:01:35.883Z,58.47
2018-12-18T18:04:05.309Z,61.30
2018-12-18T18:06:34.994Z,58.60
2018-12-18T18:09:08.289Z,59.27
2018-12-18T18:11:37.796Z,58.93
2018-12-18T18:14:07.107Z,55.20
2018-12-18T18:16:36.570Z,55.40
2018-12-18T18:19:05.927Z,57.10
2018-12-18T18:21:35.462Z,56.18
2018-12-18T18:24:04.932Z,56.23
2018-12-18T18:26:34.509Z,54.43
2018-12-18T18:29:03.847Z,52.30
2018-12-18T18:31:33.250Z,54.27
2018-12-18T18:34:02.623Z,55.03
2018-12-18T18:36:31.964Z,54.77
2018-12-18T18:39:01.262Z,55.43
2018-12-18T18:41:32.674Z,54.50
2018-12-18T18:44:02.047Z,54.90
2018-12-18T18:46:31.728Z,54.07
2018-12-18T18:49:01.227Z,56.27
2018-12-18T18:51:30.568Z,55.38
2018-12-18T18:53:59.892Z,56.37
2018-12-18T18:56:29.347Z,56.07
2018-12-18T18:58:58.696Z,53.77
2018-12-18T19:01:28.048Z,53.87
2018-12-18T19:03:57.401Z,52.48
2018-12-18T19:06:27.075Z,54.65
2018-12-18T19:08:56.413Z,54.00
2018-12-18T19:11:25.752Z,52.38
2018-12-18T19:13:55.111Z,53.60
2018-12-18T19:16:24.519Z,50.83
2018-12-18T19:18:53.839Z,53.50
2018-12-18T19:21:23.161Z,54.70
2018-12-18T19:23:52.542Z,52.07
2018-12-18T19:26:21.962Z,51.87
2018-12-18T19:28:51.262Z,52.87
2018-12-18T19:31:20.578Z,52.30
2018-12-18T19:33:49.971Z,54.10
2018-12-18T19:36:19.244Z,53.30
2018-12-18T19:38:48.639Z,52.97
2018-12-18T19:41:18.080Z,52.03
2018-12-18T19:43:47.560Z,51.07
2018-12-18T19:46:16.931Z,50.70
2018-12-18T19:48:46.308Z,51.13
2018-12-18T19:51:15.590Z,51.50
2018-12-18T19:53:45.210Z,50.55
2018-12-18T19:56:14.455Z,50.10
2018-12-18T19:58:43.841Z,50.60
2018-12-18T20:01:13.104Z,50.03
2018-12-18T20:03:42.754Z,50.43
2018-12-18T20:06:12.172Z,51.33
2018-12-18T20:08:41.572Z,48.30
2018-12-18T20:11:10.977Z,50.43
2018-12-18T20:13:40.398Z,49.73
2018-12-18T20:16:09.788Z,49.00
2018-12-18T20:18:39.181Z,51.08
2018-12-18T20:21:08.416Z,49.35
2018-12-18T20:23:37.823Z,49.93
2018-12-18T20:26:09.207Z,50.00
2018-12-18T20:28:38.788Z,49.63
2018-12-18T20:31:08.085Z,49.57
2018-12-18T20:33:37.488Z,49.20
2018-12-18T20:36:06.767Z,48.50
2018-12-18T20:38:36.052Z,49.23
2018-12-18T20:41:05.314Z,50.33
2018-12-18T20:43:34.779Z,47.90
2018-12-18T20:46:04.222Z,48.73
2018-12-18T20:48:33.634Z,51.00
2018-12-18T20:51:02.959Z,49.08
2018-12-18T20:53:32.277Z,49.60
2018-12-18T20:56:01.653Z,49.07
2018-12-18T20:58:31.223Z,49.03
2018-12-18T21:01:00.599Z,48.03
2018-12-18T21:03:30.090Z,49.23
2018-12-18T21:05:59.506Z,49.03
2018-12-18T21:08:28.802Z,49.03
2018-12-18T21:10:58.084Z,50.17
2018-12-18T21:13:30.026Z,48.58
2018-12-18T21:15:59.373Z,49.37
2018-12-18T21:18:28.693Z,47.50
2018-12-18T21:20:59.039Z,48.08
2018-12-18T21:23:28.389Z,49.03
2018-12-18T21:25:57.782Z,48.80
2018-12-18T21:28:27.228Z,48.38
2018-12-18T21:30:56.650Z,48.20
2018-12-18T21:33:26.107Z,48.10
2018-12-18T21:35:55.377Z,48.33
2018-12-18T21:38:30.275Z,48.00
2018-12-18T21:40:56.227Z,46.88
2018-12-18T21:43:25.504Z,47.40
2018-12-18T21:45:54.868Z,48.17
2018-12-18T21:48:24.250Z,47.88
2018-12-18T21:50:53.558Z,47.23
2018-12-18T21:53:23.863Z,47.70
2018-12-18T21:55:53.177Z,46.87
2018-12-18T21:58:22.845Z,47.43
2018-12-18T22:00:52.215Z,47.25
2018-12-18T22:03:21.616Z,45.67
2018-12-18T22:05:51.155Z,48.25
2018-12-18T22:08:20.546Z,46.70
2018-12-18T22:10:49.961Z,45.37
2018-12-18T22:13:19.278Z,46.40
2018-12-18T22:15:48.739Z,47.78
2018-12-18T22:18:18.167Z,48.40
2018-12-18T22:20:47.536Z,46.27
2018-12-18T22:23:16.823Z,46.07
2018-12-18T22:25:46.218Z,46.30
2018-12-18T22:28:15.543Z,45.17
2018-12-18T22:30:44.861Z,47.00
2018-12-18T22:33:14.164Z,46.60
2018-12-18T22:35:43.585Z,44.83
2018-12-18T22:38:13.136Z,45.30
2018-12-18T22:40:42.467Z,46.50
2018-12-18T22:43:11.712Z,45.47
2018-12-18T22:45:40.953Z,47.00
2018-12-18T22:48:10.468Z,44.67
2018-12-18T22:50:39.820Z,46.03
2018-12-18T22:53:09.224Z,43.97
2018-12-18T22:55:44.681Z,43.97
2018-12-18T22:58:10.032Z,44.80
2018-12-18T23:00:44.839Z,44.20
2018-12-18T23:03:16.225Z,43.40
2018-12-18T23:05:45.936Z,44.08
2018-12-18T23:08:15.522Z,43.83
2018-12-18T23:10:45.020Z,43.87
2018-12-18T23:13:18.722Z,44.80
2018-12-18T23:15:48.286Z,43.92
2018-12-18T23:18:17.854Z,43.43
2018-12-18T23:20:47.252Z,43.50
2018-12-18T23:23:16.595Z,45.67
2018-12-18T23:25:45.992Z,44.15
2018-12-18T23:28:15.577Z,45.77
2018-12-18T23:30:44.916Z,42.88
2018-12-18T23:33:14.298Z,43.77
2018-12-18T23:35:43.768Z,43.73
2018-12-18T23:38:13.088Z,42.67
2018-12-18T23:40:42.571Z,43.08
2018-12-18T23:43:12.000Z,42.17
2018-12-18T23:45:41.488Z,41.33
2018-12-18T23:48:10.982Z,43.33
2018-12-18T23:50:40.409Z,41.43
2018-12-18T23:53:09.817Z,41.53
2018-12-18T23:55:39.179Z,41.45
2018-12-18T23:58:08.605Z,42.00
